createdAt,value
2022-12-11T00:00:57.032Z,89.04
2022-12-11T00:03:40.664Z,89.03
2022-12-11T00:06:11.526Z,89.05
2022-12-11T00:08:40.006Z,89.09
2022-12-11T00:11:14.308Z,89.07
2022-12-11T00:13:42.690Z,89.15
2022-12-11T00:16:10.771Z,89.32
2022-12-11T00:18:38.690Z,89.40
2022-12-11T00:21:10.222Z,89.30
2022-12-11T00:23:38.066Z,89.26
2022-12-11T00:26:12.199Z,89.20
2022-12-11T00:28:40.124Z,89.24
2022-12-11T00:31:11.457Z,89.11
2022-12-11T00:33:43.866Z,89.28
2022-12-11T00:36:17.707Z,89.16
2022-12-11T00:38:45.526Z,89.21
2022-12-11T00:41:13.367Z,89.14
2022-12-11T00:43:41.660Z,89.22
2022-12-11T00:46:10.403Z,89.15
2022-12-11T00:48:38.616Z,89.22
2022-12-11T00:51:07.008Z,89.19
2022-12-11T00:53:34.795Z,89.14
2022-12-11T00:56:08.812Z,89.18
2022-12-11T00:58:36.593Z,89.14
2022-12-11T01:01:10.082Z,89.36
2022-12-11T01:03:37.885Z,89.35
2022-12-11T01:06:06.459Z,89.44
2022-12-11T01:08:38.507Z,89.50
2022-12-11T01:11:09.426Z,89.48
2022-12-11T01:13:37.865Z,89.34
2022-12-11T01:16:14.031Z,89.45
2022-12-11T01:18:42.352Z,89.58
2022-12-11T01:21:12.634Z,89.48
2022-12-11T01:23:40.695Z,89.49
2022-12-11T01:26:15.547Z,89.53
2022-12-11T01:28:43.969Z,89.47
2022-12-11T01:31:14.067Z,89.64
2022-12-11T01:33:42.373Z,89.66
2022-12-11T01:36:20.469Z,89.44
2022-12-11T01:38:49.078Z,89.45
2022-12-11T01:41:17.915Z,89.43
2022-12-11T01:44:27.345Z,89.50
2022-12-11T01:46:55.104Z,89.67
2022-12-11T01:49:26.187Z,89.53
2022-12-11T01:52:03.233Z,89.43
2022-12-11T01:54:31.508Z,89.36
2022-12-11T01:57:04.269Z,89.54
2022-12-11T01:59:35.261Z,89.54
2022-12-11T02:02:18.862Z,89.55
2022-12-11T02:04:48.812Z,89.50
2022-12-11T02:07:16.842Z,89.26
2022-12-11T02:09:47.466Z,89.09
2022-12-11T02:12:46.209Z,89.22
2022-12-11T02:15:16.817Z,89.28
2022-12-11T02:18:23.120Z,89.15
2022-12-11T02:21:20.856Z,89.25
2022-12-11T02:24:01.659Z,89.40
2022-12-11T02:26:52.235Z,89.31
2022-12-11T02:29:26.109Z,89.43
2022-12-11T02:32:02.889Z,89.37
2022-12-11T02:34:37.322Z,89.56
2022-12-11T02:37:09.300Z,89.63
2022-12-11T02:39:40.796Z,89.57
2022-12-11T02:42:11.160Z,89.44
2022-12-11T02:44:40.524Z,89.46
2022-12-11T02:47:13.733Z,89.35
2022-12-11T02:49:46.556Z,89.28
2022-12-11T02:52:18.856Z,89.35
2022-12-11T02:54:47.745Z,89.38
2022-12-11T02:57:24.001Z,89.35
2022-12-11T02:59:51.928Z,89.45
2022-12-11T03:02:19.882Z,89.35
2022-12-11T03:04:48.317Z,89.24
2022-12-11T03:07:23.395Z,89.18
2022-12-11T03:09:52.343Z,89.31
2022-12-11T03:12:28.202Z,89.39
2022-12-11T03:14:59.399Z,89.24
2022-12-11T03:17:34.420Z,89.34
2022-12-11T03:20:23.340Z,89.59
2022-12-11T03:23:04.956Z,89.52
2022-12-11T03:25:44.138Z,89.29
2022-12-11T03:28:27.287Z,89.24
2022-12-11T03:30:57.014Z,89.34
2022-12-11T03:33:35.833Z,89.24
2022-12-11T03:36:09.756Z,89.20
2022-12-11T03:38:44.368Z,89.09
2022-12-11T03:41:15.058Z,89.04
2022-12-11T03:43:43.212Z,89.02
2022-12-11T03:46:14.095Z,89.18
2022-12-11T03:48:45.630Z,89.12
2022-12-11T03:51:15.235Z,89.23
2022-12-11T04:07:26.028Z,88.98
2022-12-11T04:09:54.534Z,88.90
2022-12-11T04:12:22.452Z,88.93
2022-12-11T04:15:02.242Z,88.98
2022-12-11T04:17:50.712Z,88.80
2022-12-11T04:20:37.234Z,88.91
2022-12-11T04:23:32.442Z,89.06
2022-12-11T04:26:08.233Z,89.01
2022-12-11T04:28:36.091Z,89.06
2022-12-11T04:31:05.092Z,89.10
2022-12-11T04:33:33.099Z,89.24
2022-12-11T04:36:01.155Z,89.21
2022-12-11T04:38:28.965Z,89.10
2022-12-11T04:41:12.038Z,89.06
2022-12-11T04:43:40.151Z,88.90
2022-12-11T04:46:16.566Z,88.73
2022-12-11T04:48:45.120Z,88.79
2022-12-11T04:51:14.389Z,88.87
2022-12-11T04:53:42.870Z,88.97
2022-12-11T04:56:13.171Z,89.00
2022-12-11T04:58:43.367Z,89.05
2022-12-11T05:01:14.715Z,89.04
2022-12-11T05:03:43.128Z,88.90
2022-12-11T05:06:12.399Z,88.89
2022-12-11T05:08:42.029Z,88.78
2022-12-11T05:11:13.136Z,88.67
2022-12-11T05:13:41.199Z,88.80
2022-12-11T05:16:10.784Z,88.72
2022-12-11T05:18:38.667Z,88.93
2022-12-11T05:21:09.765Z,88.71
2022-12-11T05:23:38.383Z,88.72
2022-12-11T05:26:14.097Z,88.62
2022-12-11T05:28:42.488Z,88.78
2022-12-11T05:31:16.247Z,88.91
2022-12-11T05:33:45.922Z,88.98
2022-12-11T05:36:32.110Z,89.15
2022-12-11T05:39:01.654Z,89.23
2022-12-11T05:41:31.275Z,89.07
2022-12-11T05:43:59.803Z,89.08
2022-12-11T05:46:30.516Z,89.12
2022-12-11T05:49:00.917Z,88.96
2022-12-11T05:51:30.018Z,89.02
2022-12-11T05:53:58.274Z,89.04
2022-12-11T05:56:29.351Z,89.02
2022-12-11T05:58:58.475Z,89.11
2022-12-11T06:01:29.362Z,89.08
2022-12-11T06:03:58.283Z,89.15
2022-12-11T06:06:27.494Z,89.05
2022-12-11T06:08:57.393Z,89.13
2022-12-11T06:11:26.821Z,89.11
2022-12-11T06:13:55.372Z,88.90
2022-12-11T06:16:23.823Z,89.00
2022-12-11T06:18:55.721Z,88.84
2022-12-11T06:21:31.357Z,88.93
2022-12-11T06:24:02.083Z,88.75
2022-12-11T06:26:29.891Z,88.71
2022-12-11T06:28:58.070Z,88.96
2022-12-11T06:31:25.934Z,88.97
2022-12-11T06:33:54.328Z,89.00
2022-12-11T06:36:23.442Z,88.73
2022-12-11T06:38:51.595Z,88.65
2022-12-11T06:41:19.537Z,88.53
2022-12-11T06:43:47.449Z,88.47
2022-12-11T06:46:18.086Z,88.38
2022-12-11T06:48:47.209Z,88.45
2022-12-11T06:51:18.264Z,88.61
2022-12-11T06:53:50.913Z,88.51
2022-12-11T06:56:19.403Z,88.42
2022-12-11T06:58:47.301Z,88.49
2022-12-11T07:01:22.001Z,88.62
2022-12-11T07:03:52.413Z,88.38
2022-12-11T07:06:20.727Z,88.20
2022-12-11T07:08:48.587Z,88.19
2022-12-11T07:11:19.022Z,88.19
2022-12-11T07:13:47.966Z,88.25
2022-12-11T07:16:17.442Z,88.20
2022-12-11T07:18:50.813Z,88.15
2022-12-11T07:21:20.357Z,88.00
2022-12-11T07:23:49.826Z,87.79
2022-12-11T07:26:21.163Z,88.01
2022-12-11T07:28:49.328Z,87.89
2022-12-11T07:31:23.220Z,87.98
2022-12-11T07:33:55.444Z,88.04
2022-12-11T07:36:24.381Z,87.93
2022-12-11T07:38:53.043Z,87.96
2022-12-11T07:41:21.696Z,87.81
2022-12-11T07:43:54.909Z,87.72
2022-12-11T07:46:26.945Z,87.66
2022-12-11T07:48:54.876Z,87.44
2022-12-11T07:51:28.615Z,87.59
2022-12-11T07:53:59.884Z,87.77
2022-12-11T07:56:29.783Z,89.67
2022-12-11T07:59:01.046Z,90.74
2022-12-11T08:01:31.039Z,90.82
2022-12-11T08:03:58.913Z,89.39
2022-12-11T08:06:29.414Z,89.06
2022-12-11T08:08:58.802Z,88.66
2022-12-11T08:11:28.432Z,88.42
2022-12-11T08:13:59.172Z,88.46
2022-12-11T08:16:27.736Z,88.19
2022-12-11T08:18:55.843Z,88.67
2022-12-11T08:21:27.031Z,88.00
2022-12-11T08:23:55.668Z,87.42
2022-12-11T08:26:29.461Z,87.37
2022-12-11T08:28:58.495Z,87.35
2022-12-11T08:31:26.895Z,87.45
2022-12-11T08:33:56.589Z,87.33
2022-12-11T08:36:25.206Z,87.23
2022-12-11T08:38:55.681Z,87.06
2022-12-11T08:41:28.702Z,86.92
2022-12-11T08:43:58.690Z,86.93
2022-12-11T08:46:29.905Z,87.09
2022-12-11T08:48:58.893Z,87.25
2022-12-11T08:51:29.102Z,87.36
2022-12-11T08:53:59.675Z,87.15
2022-12-11T08:56:28.727Z,87.20
2022-12-11T08:58:59.849Z,87.08
2022-12-11T09:01:28.728Z,87.17
2022-12-11T09:03:57.378Z,86.90
2022-12-11T09:06:28.401Z,86.96
2022-12-11T09:09:00.086Z,87.23
2022-12-11T09:11:31.673Z,87.11
2022-12-11T09:14:06.788Z,86.99
2022-12-11T09:16:40.135Z,86.83
2022-12-11T09:19:12.520Z,86.16
2022-12-11T09:21:41.667Z,86.56
2022-12-11T09:24:10.746Z,86.44
2022-12-11T09:26:39.754Z,86.45
2022-12-11T09:29:08.082Z,86.28
2022-12-11T09:31:37.054Z,86.32
2022-12-11T09:34:07.977Z,86.20
2022-12-11T09:36:35.899Z,86.05
2022-12-11T09:39:06.015Z,85.75
2022-12-11T09:41:45.904Z,85.72
2022-12-11T09:44:35.794Z,85.91
2022-12-11T09:47:07.842Z,85.76
2022-12-11T09:49:41.027Z,86.02
2022-12-11T09:52:50.616Z,86.39
2022-12-11T09:55:24.289Z,86.20
2022-12-11T09:57:52.102Z,85.59
2022-12-11T10:00:27.755Z,85.61
2022-12-11T10:02:59.147Z,85.43
2022-12-11T10:05:46.110Z,85.32
2022-12-11T10:08:52.784Z,85.10
2022-12-11T10:11:58.011Z,84.92
2022-12-11T10:15:01.586Z,84.71
2022-12-11T10:17:34.285Z,84.49
2022-12-11T10:20:29.200Z,84.40
2022-12-11T10:22:58.470Z,84.17
2022-12-11T10:25:35.519Z,83.98
2022-12-11T10:28:14.441Z,84.24
2022-12-11T10:30:50.883Z,84.51
2022-12-11T10:33:22.251Z,84.25
2022-12-11T10:35:54.041Z,84.37
2022-12-11T10:38:28.492Z,84.39
2022-12-11T10:41:21.094Z,84.25
2022-12-11T10:43:52.792Z,84.16
2022-12-11T10:46:26.928Z,83.95
2022-12-11T10:48:57.509Z,84.04
2022-12-11T10:51:34.713Z,84.07
2022-12-11T10:54:32.315Z,84.15
2022-12-11T10:57:03.340Z,84.27
2022-12-11T10:59:43.387Z,84.25
2022-12-11T11:02:31.255Z,84.12
2022-12-11T11:05:01.615Z,84.19
2022-12-11T11:07:31.571Z,84.20
2022-12-11T11:10:07.228Z,84.49
2022-12-11T11:12:41.789Z,84.55
2022-12-11T11:15:25.677Z,84.27
2022-12-11T11:17:56.036Z,83.96
2022-12-11T11:20:27.499Z,83.89
2022-12-11T11:23:00.416Z,83.63
2022-12-11T11:25:31.255Z,83.54
2022-12-11T11:28:08.473Z,83.47
2022-12-11T11:30:42.023Z,83.66
2022-12-11T11:33:14.256Z,83.60
2022-12-11T11:35:55.446Z,83.46
2022-12-11T11:38:47.726Z,83.40
2022-12-11T11:41:21.643Z,83.55
2022-12-11T11:44:04.116Z,83.86
2022-12-11T11:46:44.017Z,83.75
2022-12-11T11:49:49.693Z,83.77
2022-12-11T11:52:34.507Z,83.58
2022-12-11T11:55:21.722Z,83.17
2022-12-11T11:57:59.635Z,83.07
2022-12-11T12:00:33.636Z,83.19
2022-12-11T12:03:08.689Z,83.06
2022-12-11T12:05:59.394Z,83.24
2022-12-11T12:08:30.094Z,83.45
2022-12-11T12:11:23.836Z,83.50
2022-12-11T12:14:12.851Z,83.89
2022-12-11T12:17:20.442Z,83.97
2022-12-11T12:20:17.752Z,83.72
2022-12-11T12:23:15.493Z,83.63
2022-12-11T12:26:06.432Z,83.43
2022-12-11T12:28:49.027Z,83.58
2022-12-11T12:31:45.492Z,83.57
2022-12-11T12:34:47.401Z,83.63
2022-12-11T12:37:27.658Z,83.27
2022-12-11T12:40:15.411Z,83.12
2022-12-11T12:42:55.744Z,83.20
2022-12-11T12:45:58.840Z,83.56
2022-12-11T12:48:27.880Z,83.15
2022-12-11T12:50:56.705Z,83.60
2022-12-11T12:53:28.737Z,83.71
2022-12-11T12:55:57.472Z,83.61
2022-12-11T12:58:42.932Z,83.48
2022-12-11T13:01:17.741Z,83.51
2022-12-11T13:04:07.338Z,83.52
2022-12-11T13:06:42.784Z,83.41
2022-12-11T13:09:16.176Z,83.51
2022-12-11T13:11:45.744Z,83.57
2022-12-11T13:14:13.590Z,83.53
2022-12-11T13:16:44.559Z,83.34
2022-12-11T13:19:42.582Z,83.45
2022-12-11T13:22:14.317Z,83.32
2022-12-11T13:24:48.614Z,83.14
2022-12-11T13:27:27.278Z,83.27
2022-12-11T13:30:23.185Z,83.42
2022-12-11T13:33:04.978Z,83.13
2022-12-11T13:35:34.209Z,83.31
2022-12-11T13:38:17.265Z,83.20
2022-12-11T13:40:49.791Z,83.15
2022-12-11T13:43:26.018Z,82.98
2022-12-11T13:45:58.309Z,82.97
2022-12-11T13:48:41.195Z,83.11
2022-12-11T13:51:17.034Z,83.23
2022-12-11T13:53:45.341Z,83.34
2022-12-11T13:56:19.556Z,83.37
2022-12-11T13:58:48.601Z,83.36
2022-12-11T14:01:30.929Z,83.06
2022-12-11T14:04:11.615Z,82.81
2022-12-11T14:06:40.075Z,83.11
2022-12-11T14:09:09.126Z,83.18
2022-12-11T14:11:40.249Z,83.16
2022-12-11T14:14:42.441Z,83.25
2022-12-11T14:17:15.122Z,83.32
2022-12-11T14:19:48.210Z,83.26
2022-12-11T14:22:19.339Z,83.27
2022-12-11T14:24:55.701Z,83.11
2022-12-11T14:27:24.798Z,82.95
2022-12-11T14:29:53.374Z,83.14
2022-12-11T14:32:34.361Z,83.04
2022-12-11T14:35:06.249Z,82.70
2022-12-11T14:37:36.506Z,82.96
2022-12-11T14:40:15.961Z,82.70
2022-12-11T14:42:57.096Z,82.53
2022-12-11T14:45:35.974Z,82.19
2022-12-11T14:48:12.960Z,82.13
2022-12-11T14:50:55.217Z,82.02
2022-12-11T14:53:27.566Z,82.07
2022-12-11T14:56:00.148Z,81.98
2022-12-11T14:58:30.432Z,82.02
2022-12-11T15:01:20.532Z,82.04
2022-12-11T15:03:48.521Z,82.11
2022-12-11T15:06:30.994Z,82.16
2022-12-11T15:09:10.425Z,82.06
2022-12-11T15:11:38.324Z,82.20
2022-12-11T15:14:11.697Z,82.25
2022-12-11T15:16:42.199Z,82.13
2022-12-11T15:19:47.565Z,82.27
2022-12-11T15:22:17.193Z,82.14
2022-12-11T15:24:48.587Z,81.93
2022-12-11T15:27:39.606Z,82.21
2022-12-11T15:30:37.677Z,82.13
2022-12-11T15:33:11.762Z,82.23
2022-12-11T15:35:52.084Z,82.05
2022-12-11T15:38:34.232Z,81.96
2022-12-11T15:41:03.654Z,82.01
2022-12-11T15:43:36.292Z,82.01
2022-12-11T15:46:04.964Z,81.96
2022-12-11T15:48:33.625Z,81.83
2022-12-11T15:51:01.611Z,82.07
2022-12-11T15:53:29.745Z,82.04
2022-12-11T15:55:59.481Z,82.01
2022-12-11T15:58:28.045Z,81.91
2022-12-11T16:00:55.955Z,81.93
2022-12-11T16:03:24.817Z,81.71
2022-12-11T16:05:53.432Z,81.96
2022-12-11T16:08:23.373Z,82.05
2022-12-11T16:10:53.735Z,82.01
2022-12-11T16:13:21.684Z,81.84
2022-12-11T16:15:51.261Z,81.81
2022-12-11T16:18:22.011Z,81.90
2022-12-11T16:20:51.603Z,82.16
2022-12-11T16:23:19.641Z,82.27
2022-12-11T16:25:48.046Z,82.07
2022-12-11T16:28:20.772Z,81.86
2022-12-11T16:30:49.656Z,81.79
2022-12-11T16:33:17.862Z,81.72
2022-12-11T16:35:45.735Z,81.85
2022-12-11T16:38:13.749Z,81.82
2022-12-11T16:40:41.679Z,81.79
2022-12-11T16:43:10.870Z,81.32
2022-12-11T16:45:38.737Z,81.54
2022-12-11T16:48:06.780Z,81.58
2022-12-11T16:50:36.300Z,81.57
2022-12-11T16:53:04.358Z,81.55
2022-12-11T16:55:32.246Z,81.52
2022-12-11T16:58:00.207Z,81.54
2022-12-11T17:00:28.139Z,81.48
2022-12-11T17:02:56.342Z,81.33
2022-12-11T17:05:25.511Z,81.34
2022-12-11T17:07:53.485Z,81.24
2022-12-11T17:10:21.340Z,81.19
2022-12-11T17:12:49.345Z,81.27
2022-12-11T17:15:17.327Z,81.19
2022-12-11T17:17:45.245Z,81.30
2022-12-11T17:20:13.175Z,81.30
2022-12-11T17:22:41.133Z,81.01
2022-12-11T17:25:09.544Z,81.25
2022-12-11T17:27:37.906Z,80.94
2022-12-11T17:30:06.474Z,81.04
2022-12-11T17:32:34.455Z,81.22
2022-12-11T17:35:02.604Z,81.27
2022-12-11T17:37:30.644Z,81.15
2022-12-11T17:39:58.553Z,81.02
2022-12-11T17:42:26.603Z,80.91
2022-12-11T17:44:54.956Z,81.02
2022-12-11T17:47:22.893Z,81.30
2022-12-11T17:49:50.748Z,81.11
2022-12-11T17:52:18.633Z,80.92
2022-12-11T17:54:46.571Z,80.97
2022-12-11T17:57:14.483Z,80.85
2022-12-11T17:59:42.342Z,80.87
2022-12-11T18:02:10.674Z,80.81
2022-12-11T18:04:39.546Z,81.10
2022-12-11T18:07:07.453Z,80.88
2022-12-11T18:09:35.574Z,80.80
2022-12-11T18:12:03.583Z,80.95
2022-12-11T18:14:31.573Z,81.25
2022-12-11T18:16:59.832Z,81.25
2022-12-11T18:19:28.042Z,81.09
2022-12-11T18:21:55.833Z,81.05
2022-12-11T18:24:31.522Z,81.10
2022-12-11T18:26:59.613Z,81.33
2022-12-11T18:29:27.591Z,81.27
2022-12-11T18:31:55.592Z,81.21
2022-12-11T18:34:23.539Z,81.06
2022-12-11T18:36:51.899Z,81.08
2022-12-11T18:39:19.809Z,81.15
2022-12-11T18:42:03.522Z,81.05
2022-12-11T18:44:35.549Z,81.10
2022-12-11T18:47:03.698Z,81.06
2022-12-11T18:49:31.967Z,80.83
2022-12-11T18:52:00.276Z,80.59
2022-12-11T18:54:28.516Z,80.57
2022-12-11T18:56:56.610Z,80.49
2022-12-11T18:59:24.859Z,80.53
2022-12-11T19:01:53.046Z,80.73
2022-12-11T19:04:21.056Z,80.80
2022-12-11T19:06:49.056Z,80.75
2022-12-11T19:09:17.785Z,80.70
2022-12-11T19:11:45.838Z,80.71
2022-12-11T19:14:13.897Z,80.77
2022-12-11T19:16:45.534Z,80.48
2022-12-11T19:19:17.515Z,80.61
2022-12-11T19:21:46.156Z,80.52
2022-12-11T19:24:18.656Z,80.39
2022-12-11T19:26:47.019Z,80.23
2022-12-11T19:29:23.449Z,80.14
2022-12-11T19:31:51.668Z,80.23
2022-12-11T19:34:19.718Z,80.33
2022-12-11T19:36:48.033Z,80.45
2022-12-11T19:39:16.117Z,80.46
2022-12-11T19:41:44.109Z,80.50
2022-12-11T19:44:13.086Z,80.53
2022-12-11T19:46:41.482Z,80.55
2022-12-11T19:49:11.305Z,80.41
2022-12-11T19:51:41.588Z,80.50
2022-12-11T19:54:13.048Z,80.55
2022-12-11T19:56:42.541Z,80.36
2022-12-11T19:59:15.837Z,80.63
2022-12-11T20:01:47.950Z,80.59
2022-12-11T20:04:17.764Z,80.48
2022-12-11T20:06:47.250Z,80.38
2022-12-11T20:09:16.189Z,80.26
2022-12-11T20:11:45.976Z,80.50
2022-12-11T20:14:22.554Z,80.69
2022-12-11T20:17:10.894Z,80.88
2022-12-11T20:19:39.621Z,80.83
2022-12-11T20:22:07.571Z,81.00
2022-12-11T20:24:35.983Z,80.93
2022-12-11T20:27:04.380Z,80.96
2022-12-11T20:29:32.290Z,80.79
2022-12-11T20:32:00.586Z,80.83
2022-12-11T20:34:28.514Z,80.72
2022-12-11T20:36:56.529Z,80.72
2022-12-11T20:39:24.534Z,80.74
2022-12-11T20:41:52.431Z,80.75
2022-12-11T20:44:20.437Z,80.64
2022-12-11T20:46:48.338Z,80.71
2022-12-11T20:49:16.649Z,80.61
2022-12-11T20:51:44.648Z,80.76
2022-12-11T20:54:13.410Z,80.67
2022-12-11T20:56:41.261Z,80.81
2022-12-11T20:59:10.859Z,80.85
2022-12-11T21:01:40.244Z,80.71
2022-12-11T21:10:35.089Z,80.87
2022-12-11T21:13:03.041Z,81.04
2022-12-11T21:15:30.844Z,81.17
2022-12-11T21:17:58.686Z,81.05
2022-12-11T21:20:26.525Z,81.08
2022-12-11T21:22:55.318Z,81.05
2022-12-11T21:25:24.461Z,81.02
2022-12-11T21:27:52.674Z,81.08
2022-12-11T21:30:20.825Z,81.06
2022-12-11T21:32:48.804Z,80.99
2022-12-11T21:35:16.897Z,80.95
2022-12-11T21:37:44.735Z,81.01
2022-12-11T21:40:12.985Z,81.12
2022-12-11T21:42:40.802Z,81.05
2022-12-11T21:47:56.887Z,81.21
2022-12-11T21:50:24.713Z,81.35
2022-12-11T21:52:52.583Z,81.32
2022-12-11T21:55:20.460Z,81.30
2022-12-11T21:57:48.363Z,81.18
2022-12-11T22:00:17.032Z,81.18
2022-12-11T22:02:44.927Z,80.89
2022-12-11T22:05:13.098Z,81.06
2022-12-11T22:07:41.193Z,81.13
2022-12-11T22:10:09.601Z,81.00
2022-12-11T22:12:37.441Z,81.09
2022-12-11T22:15:06.362Z,81.14
2022-12-11T22:17:34.289Z,81.35
2022-12-11T22:20:02.238Z,81.30
2022-12-11T22:22:30.049Z,81.28
2022-12-11T22:24:57.931Z,81.37
2022-12-11T22:27:25.782Z,81.41
2022-12-11T22:29:55.131Z,81.55
2022-12-11T22:32:22.962Z,81.63
2022-12-11T22:34:51.080Z,81.55
2022-12-11T22:37:19.101Z,81.53
2022-12-11T22:39:46.942Z,81.63
2022-12-11T22:42:14.737Z,81.60
2022-12-11T22:44:42.586Z,81.63
2022-12-11T22:47:10.440Z,81.70
2022-12-11T22:49:38.578Z,81.88
2022-12-11T22:52:06.438Z,81.96
2022-12-11T22:54:34.278Z,81.86
2022-12-11T22:57:02.115Z,81.77
2022-12-11T22:59:29.935Z,81.67
2022-12-11T23:01:57.781Z,81.58
2022-12-11T23:04:25.735Z,81.85
2022-12-11T23:06:53.585Z,81.82
2022-12-11T23:09:21.417Z,81.86
2022-12-11T23:11:49.294Z,81.90
2022-12-11T23:14:18.857Z,81.83
2022-12-11T23:16:46.766Z,81.85
2022-12-11T23:19:14.845Z,81.92
2022-12-11T23:21:43.882Z,81.89
2022-12-11T23:24:12.766Z,81.80
2022-12-11T23:26:40.866Z,82.07
2022-12-11T23:29:08.792Z,81.97
2022-12-11T23:31:36.993Z,81.91
2022-12-11T23:34:05.094Z,81.94
2022-12-11T23:36:34.437Z,82.10
2022-12-11T23:39:02.336Z,82.11
2022-12-11T23:41:30.972Z,82.25
2022-12-11T23:44:00.094Z,82.24
2022-12-11T23:46:28.221Z,82.07
2022-12-11T23:48:56.222Z,82.27
2022-12-11T23:51:25.455Z,82.41
2022-12-11T23:53:53.847Z,82.62
2022-12-11T23:56:24.732Z,82.37
2022-12-11T23:58:53.092Z,82.38
